20:02
Airports
Links
Donate
Help keep this website running!
PayPal
Bitcoin
METAR
PHNL 121953Z 23011KT 10SM FEW023 BKN042 BKN060 26/19 A2999 RMK AO2 RAB33E42 SLP155 VCSH NE P0000 T02610189
Current Weather Conditions at PHNL
VFR 19:53:00 12-12-17
Automated station
Altimeter:29.99 hg
Temp:26.1°c 79°f
Dew point:18.9°c 64°f
Wind:11 knots, 12.7 mph, 6 m/s, from 230°
Visibility:10.0 statute miles
6000(BKN) Broken
4200(BKN) Broken
2300(FEW) A few
Past METAR reports
VFR 18:53:00 12-12-17
Automated station
Altimeter:29.96 hg
Temp:26.1°c 79°f
Dew point:18.9°c 64°f
Wind:9 knots, 10.4 mph, 5 m/s, from 230°
Visibility:10.0 statute miles
7000(BKN) Broken
4500(SCT) Scattered
2500(FEW) A few
PHNL 121853Z 23009KT 10SM FEW025 SCT045 BKN070 26/19 A2996 RMK AO2 SLP146 T02610189 $
VFR 17:53:00 12-12-17
Automated station
Altimeter:29.95 hg
Temp:25.6°c 77°f
Dew point:18.9°c 64°f
Wind:12 knots, 13.8 mph, 6 m/s, from 230°
Visibility:10.0 statute miles
7000(BKN) Broken
4000(SCT) Scattered
2500(FEW) A few
PHNL 121753Z 23012KT 10SM FEW025 SCT040 BKN070 26/19 A2995 RMK AO2 SLP142 VCSH NE T02560189 10256 20244 53008
VFR 16:53:00 12-12-17
Automated station
Altimeter:29.94 hg
Temp:25.0°c 77°f
Dew point:18.9°c 64°f
Wind:10 knots, 11.5 mph, 5 m/s, from 240°
Visibility:10.0 statute miles
7500(BKN) Broken
4500(SCT) Scattered
2400(FEW) A few
PHNL 121653Z 24010KT 10SM FEW024 SCT045 BKN075 25/19 A2994 RMK AO2 SLP138 VCSH NE T02500189
VFR 15:53:00 12-12-17
Automated station
Altimeter:29.93 hg
Temp:25.0°c 77°f
Dew point:18.9°c 64°f
Wind:11 knots, 12.7 mph, 6 m/s, from 240°
Visibility:10.0 statute miles
7000(BKN) Broken
5000(FEW) A few
2000(FEW) A few
PHNL 121553Z 24011KT 10SM FEW020 FEW050 BKN070 25/19 A2993 RMK AO2 SLP133 T02500189 $
VFR 14:53:00 12-12-17
Automated station
Altimeter:29.93 hg
Temp:25.0°c 77°f
Dew point:18.9°c 64°f
Wind:10 knots, 11.5 mph, 5 m/s, from 240°
Visibility:10.0 statute miles
5000(SCT) Scattered
4000(SCT) Scattered
2000(FEW) A few
PHNL 121453Z 24010KT 10SM FEW020 SCT040 SCT050 25/19 A2993 RMK AO2 SLP133 T02500189 55002 $
TAF
PHNL 121740Z 1218/1324 24011KT P6SM VCSH SCT025 BKN050 FM121900 25011KT P6SM -SHRA SCT025 BKN045 TEMPO 1221/1223 3SM SHRA BR BKN025 FM130000 32012KT P6SM VCSH SCT025 BKN040 FM130500 32007KT P6SM FEW025 SCT040 FM132000 01015G25KT P6SM FEW030 FEW050
Forecast at PHNL
18:00 12-12-17 to 19:00 12-12-17
VCSH
Wind:11 Knots from 240°
Visibility:6.21 statute miles
2500SCT Scattered
5000BKN Broken
FM 19:00 12-12-17 to 00:00 13-12-17
-SHRA
Wind:11 Knots from 250°
Visibility:6.21 statute miles
2500SCT Scattered
4500BKN Broken
TEMPO 21:00 12-12-17 to 23:00 12-12-17
SHRA BR
Visibility:3.0 statute miles
2500BKN Broken
FM 00:00 13-12-17 to 05:00 13-12-17
VCSH
Wind:12 Knots from 320°
Visibility:6.21 statute miles
2500SCT Scattered
4000BKN Broken
FM 05:00 13-12-17 to 20:00 13-12-17
Wind:7 Knots from 320°
Visibility:6.21 statute miles
2500FEW A few
4000SCT Scattered
FM 20:00 13-12-17 to 00:00 14-12-17
Wind:15 Knots from 10°
Visibility:6.21 statute miles
3000FEW A few
5000FEW A few